Tiempo atmosférico en la estación meteorológica de Balsareny, Barcelona (352 m.)



Fecha
DESCASC
Temp. máxima en grados centígrados (hora)
DESCASC
Temp. mínima en grados centígrados (hora)
DESCASC
Temp. media en grados centígrados
DESCASC
Racha de viento máxima en m/sg (hora)
DESCASC
Velocidad máxima media en intervalos de 10 minutos(hora)
DESCASC
Precipitaciones diarias en mm
DESCASC
Precipitaciones de 00:00 a 06:00 en mm
DESCASC
Precipitaciones de 06:00 a 12:00 en mm
DESCASC
Precipitaciones de 12:00 a 18:00 en mm
DESCASC
Precipitaciones de 18:00 a 24:00 en mm
DESCASC
31-03-2020 12.7 (14:00) 5.6 (02:30) 9.1 8.33 (17:00) 4.72 (17:00) 3 0 0 0.4 2.6
30-03-2020 10.1 (01:20) 5.8 (22:50) 8 7.78 (11:10) 3.61 (11:10) 0.4 0 0 0.2 0.2
29-03-2020 19.7 (17:00) 0.1 (00:00) 9.9 9.17 (17:40) 5 (18:10) 0.8 0 0 0 0.8
28-03-2020 17.6 (14:20) 4.5 (00:00) 11.1 6.11 (15:20) 3.61 (15:20) 0 0 0 0 0
27-03-2020 12.5 (16:20) -3 (-00:0) 4.8 6.39 (17:30) 3.89 (18:20) 0 0 0 0 0
26-03-2020 12.1 (11:50) -2.2 (-00:0) 5 11.39 (13:00) 7.22 (13:00) 0 0 0 0 0
25-03-2020 10.7 (12:50) 2 (00:00) 6.3 11.11 (07:10) 5.83 (07:10) 0.2 0 0.2 0 0
24-03-2020 15.6 (13:50) 6.5 (00:00) 11.1 9.17 (11:20) 5 (15:30) 0 0 0 0 0
23-03-2020 14.4 (16:30) 8.1 (00:00) 11.3 11.11 (17:20) 5.56 (17:50) 3.8 0.2 3 0.6 0
22-03-2020 16.8 (16:10) 6.4 (07:00) 11.6 7.22 (18:10) 4.44 (16:20) 0 0 0 0 0
21-03-2020 16.8 (15:00) -0.3 (00:00) 8.2 6.67 (17:10) 3.89 (18:20) 0 0 0 0 0
20-03-2020 17.1 (15:40) 1.6 (00:00) 9.4 9.17 (16:40) 6.67 (16:40) 0 0 0 0 0
19-03-2020 18.3 (14:40) 1.4 (00:00) 9.8 8.61 (15:20) 6.11 (15:20) 0 0 0 0 0
18-03-2020 17.7 (16:30) 5.3 (00:00) 11.5 5.28 (17:10) 3.89 (17:40) 0 0 0 0 0
17-03-2020 15.7 (16:00) 7.5 (00:00) 11.6 8.06 (00:20) 4.44 (03:10) 0 0 0 0 0
16-03-2020 12.5 (10:50) 9.4 (00:00) 10.9 8.89 (12:20) 5.83 (12:20) 23 0 0 20.8 2.2
15-03-2020 17.4 (14:40) 4.6 (00:00) 11 8.89 (14:30) 5.83 (14:10) 0 0 0 0 0
14-03-2020 17 (16:30) 6.8 (00:00) 11.9 5.56 (18:40) 4.17 (18:40) 0 0 0 0 0
13-03-2020 19.8 (14:00) 7.1 (07:20) 13.4 7.5 (14:20) 4.72 (14:20) 0 0 0 0 0
12-03-2020 24.8 (16:00) 3.2 (00:00) 14 6.94 (18:40) 4.72 (17:20) 0 0 0 0 0
11-03-2020 23.5 (16:30) 0.8 (00:00) 12.2 6.11 (15:50) 3.89 (16:40) 0 0 0 0 0
10-03-2020 15.4 (13:50) 0.7 (00:00) 8 6.67 (14:10) 4.72 (14:00) 0 0 0 0 0
09-03-2020 18.6 (15:20) 1.2 (00:00) 9.9 9.17 (16:20) 4.72 (16:20) 0 0 0 0 0
08-03-2020 17.3 (15:30) 0.3 (00:00) 8.8 7.5 (14:20) 4.17 (14:20) 0 0 0 0 0
07-03-2020 17.3 (16:20) -1 (-00:0) 8.1 8.06 (11:40) 5 (11:50) 0 0 0 0 0
06-03-2020 13.7 (13:00) -0.7 (-00:0) 6.5 13.61 (17:30) 8.06 (17:30) 0 0 0 0 0
05-03-2020 17 (13:40) 3.5 (00:00) 10.3 13.06 (17:10) 7.22 (17:00) 0 0 0 0 0
04-03-2020 19.1 (16:40) 0.3 (00:00) 9.7 7.78 (15:40) 4.44 (18:00) 0 0 0 0 0
03-03-2020 11.4 (14:10) 3.7 (00:00) 7.5 12.22 (15:20) 5.83 (13:20) 0 0 0 0 0
02-03-2020 13.5 (13:40) 4.9 (00:00) 9.2 15.56 (11:00) 7.22 (11:50) 6.2 3.8 1.2 1.2 0

Gráficas

Temp. máximas Temp. mínimas Temp. medias Precipitaciones Rachas de viento máximas Velocidades máximas media en intervalos de 10 minutos

Datos horarios

Fecha y hora oficial Temperatura (ºC) Velocidad del viento (km/h) Dirección del viento Racha (km/h) Dirección de racha Precipitación (mm) Presión (hPa) Tendencia (hPa) Humedad (%)
2020-03-31 23:00:00 9 8 Norte 17 Nordeste 0 -- -- 89
2020-03-31 22:00:00 9 10 Norte 17 Norte 0 -- -- 92
2020-03-31 21:00:00 9 10 Norte 14 Norte 0.4 -- -- 95
2020-03-31 20:00:00 9.2 10 Norte 13 Norte 1.4 -- -- 94
2020-03-31 19:00:00 9.8 8 Norte 14 Norte 0.8 -- -- 89
2020-03-31 18:00:00 10.7 9 Nordeste 24 Nordeste 0.2 -- -- 84
2020-03-31 17:00:00 11.1 17 Este 30 Este 0.2 -- -- 78
2020-03-31 16:00:00 11.6 13 Nordeste 27 Este 0 -- -- 77
2020-03-31 15:00:00 12.1 11 Nordeste 23 Este 0 -- -- 70
2020-03-31 14:00:00 12.7 14 Nordeste 24 Nordeste 0 -- -- 70
2020-03-31 13:00:00 11.3 10 Nordeste 20 Este 0 -- -- 76
2020-03-31 12:00:00 11.1 10 Este 21 Nordeste 0 -- -- 75
2020-03-31 11:00:00 10.1 6 Nordeste 22 Nordeste 0 -- -- 77
2020-03-31 10:00:00 9.2 9 Norte 15 Norte 0 -- -- 86
2020-03-31 09:00:00 7.7 12 Norte 19 Norte 0 -- -- 86
2020-03-31 08:00:00 7.1 9 Norte 13 Norte 0 -- -- 90
2020-03-31 07:00:00 6 6 Norte 8 Norte 0 -- -- 96
2020-03-31 06:00:00 6 3 Norte 5 Sudoeste 0 -- -- 95
2020-03-31 05:00:00 5.8 2 Sudeste 4 Sudeste 0 -- -- 93
2020-03-31 04:00:00 5.7 2 Sur 4 Norte 0 -- -- 93
2020-03-31 03:00:00 5.7 3 Nordeste 6 Norte 0 -- -- 93
2020-03-31 02:00:00 5.7 4 Sur 9 Sur 0 -- -- 91
2020-03-31 01:00:00 5.8 5 Sur 7 Sur 0 -- -- 90
2020-03-31 00:00:00 5.8 0 Calma 4 Norte 0 -- -- 90
2020-03-30 23:00:00 5.8 0 Calma 5 Sudoeste 0 -- -- 88
2020-03-30 22:00:00 5.9 4 Sudoeste 6 Sudoeste 0 -- -- 85
2020-03-30 21:00:00 6.1 2 Sur 5 Norte 0 -- -- 85
2020-03-30 20:00:00 6.2 2 Sudoeste 8 Sur 0 -- -- 83
2020-03-30 19:00:00 6.5 5 Sudoeste 14 Sudoeste 0.2 -- -- 81
2020-03-30 18:00:00 6.5 8 Sudoeste 16 Sudoeste 0 -- -- 80
2020-03-30 17:00:00 6.8 11 Sudoeste 18 Sudoeste 0 -- -- 77
2020-03-30 16:00:00 7 4 Noroeste 17 Sudoeste 0.2 -- -- 77
2020-03-30 15:00:00 6.8 8 Sudoeste 15 Sudoeste 0 -- -- 76
2020-03-30 14:00:00 6.3 9 Sudoeste 18 Sudoeste 0 -- -- 77
2020-03-30 13:00:00 7.1 8 Noroeste 23 Oeste 0 -- -- 72
2020-03-30 12:00:00 6.2 8 Noroeste 28 Oeste 0 -- -- 77
2020-03-30 11:00:00 6.4 12 Oeste 27 Noroeste 0 -- -- 76
2020-03-30 10:00:00 6.7 6 Oeste 19 Oeste 0 -- -- 80
2020-03-30 09:00:00 7.4 6 Sudoeste 11 Sur 0 -- -- 83
2020-03-30 08:00:00 7.7 4 Noroeste 18 Noroeste 0 -- -- 84
2020-03-30 07:00:00 8 4 Noroeste 11 Noroeste 0 -- -- 80
2020-03-30 06:00:00 8.4 3 Sur 9 Oeste 0 -- -- 78
2020-03-30 05:00:00 8.7 4 Sudeste 11 Oeste 0 -- -- 83
2020-03-30 04:00:00 9 2 Noroeste 11 Este 0 -- -- 85
2020-03-30 03:00:00 9.4 3 Norte 13 Oeste 0 -- -- 87
2020-03-30 02:00:00 9.3 2 Sudeste 10 Noroeste 0 -- -- 91
2020-03-30 01:00:00 9.9 4 Noroeste 8 Noroeste 0 -- -- 89
2020-03-30 00:00:00 9.9 0 Calma 9 Noroeste 0 -- -- 89
2020-03-29 23:00:00 10.5 0 Calma 5 Norte 0 -- -- 90
2020-03-29 22:00:00 11 4 Norte 12 Norte 0 -- -- 85
2020-03-29 21:00:00 11.5 3 Sudeste 12 Sur 0 -- -- 80
2020-03-29 20:00:00 12.1 6 Sudoeste 20 Sudeste 0.2 -- -- 79
2020-03-29 19:00:00 12.7 5 Norte 32 Este 0.6 -- -- 82
2020-03-29 18:00:00 15.6 14 Este 33 Este 0 -- -- 63
2020-03-29 17:00:00 19.7 10 Sudoeste 19 Sudoeste 0 -- -- 41
2020-03-29 16:00:00 19.6 7 Sudoeste 17 Sudoeste 0 -- -- 43
2020-03-29 15:00:00 18.9 10 Sur 20 Sur 0 -- -- 46
2020-03-29 14:00:00 17.4 11 Sudeste 17 Sudeste 0 -- -- 52
2020-03-29 13:00:00 15.7 7 Sudeste 14 Sudeste 0 -- -- 57
2020-03-29 12:00:00 14.5 8 Sudeste 14 Sudeste 0 -- -- 60
2020-03-29 11:00:00 10.9 4 Sudeste 8 Sudeste 0 -- -- 69
2020-03-29 10:00:00 5.9 2 Norte 5 Norte 0 -- -- 88
2020-03-29 09:00:00 1.5 5 Norte 6 Norte 0 -- -- 98
2020-03-29 08:00:00 0.9 0 Calma 8 Noroeste 0 -- -- 98
2020-03-29 07:00:00 1.1 0 Calma 6 Noroeste 0 -- -- 97
2020-03-29 06:00:00 1.6 0 Calma 9 Norte 0 -- -- 95
2020-03-29 05:00:00 3 5 Noroeste 8 Noroeste 0 -- -- 94
2020-03-29 03:00:00 3.3 4 Noroeste 6 Noroeste 0 -- -- 96
2020-03-29 01:00:00 4.1 2 Noroeste 7 Norte 0 -- -- 91
2020-03-29 00:00:00 4.6 3 Nordeste 8 Norte 0 -- -- 91
2020-03-28 23:00:00 6.1 3 Noroeste 8 Noroeste 0 -- -- 88
2020-03-28 22:00:00 7.7 4 Norte 7 Norte 0 -- -- 79
2020-03-28 21:00:00 10.3 3 Noroeste 6 Noroeste 0 -- -- 72
2020-03-28 20:00:00 11.9 3 Nordeste 6 Sudoeste 0 -- -- 66
2020-03-28 19:00:00 14.3 3 Oeste 16 Noroeste 0 -- -- 56
2020-03-28 18:00:00 15.4 4 Noroeste 16 Noroeste 0 -- -- 55
2020-03-28 17:00:00 15.9 6 Noroeste 19 Sudoeste 0 -- -- 50
2020-03-28 16:00:00 16.5 9 Sudoeste 22 Sudeste 0 -- -- 49
2020-03-28 15:00:00 17.2 9 Sudeste 18 Sur 0 -- -- 44
2020-03-28 14:00:00 17 11 Sur 19 Sur 0 -- -- 47
2020-03-28 13:00:00 14.9 10 Sudeste 17 Sudeste 0 -- -- 49
2020-03-28 12:00:00 13.5 5 Sur 10 Sudeste 0 -- -- 65
2020-03-28 11:00:00 11 5 Sur 7 Sudeste 0 -- -- 72
2020-03-28 10:00:00 8.6 3 Sudeste 8 Sur 0 -- -- 75
2020-03-28 09:00:00 7.3 0 Calma 6 Norte 0 -- -- 84
2020-03-28 08:00:00 5.5 3 Norte 9 Norte 0 -- -- 90
2020-03-28 07:00:00 4.5 5 Norte 8 Noroeste 0 -- -- 93
2020-03-28 06:00:00 5.1 2 Nordeste 5 Sudeste 0 -- -- 91
2020-03-28 05:00:00 5.2 4 Sur 11 Noroeste 0 -- -- 90
2020-03-28 04:00:00 4.8 6 Noroeste 8 Noroeste 0 -- -- 92
2020-03-28 03:00:00 4.9 4 Norte 10 Norte 0 -- -- 91
2020-03-28 02:00:00 5.6 3 Oeste 8 Norte 0 -- -- 89
2020-03-28 01:00:00 6.3 3 Noroeste 5 Oeste 0 -- -- 86
2020-03-28 00:00:00 7 2 Sudoeste 7 Norte 0 -- -- 83
2020-03-27 23:00:00 7.1 3 Norte 9 Noroeste 0 -- -- 82
2020-03-27 22:00:00 7.6 4 Norte 6 Noroeste 0 -- -- 78
2020-03-27 21:00:00 8.2 6 Sudeste 11 Sur 0 -- -- 76
2020-03-27 20:00:00 8.6 7 Sur 15 Sur 0 -- -- 73
2020-03-27 19:00:00 10.1 9 Sur 22 Sur 0 -- -- 62
2020-03-27 18:00:00 11.3 8 Sur 23 Sur 0 -- -- 51
2020-03-27 17:00:00 12.2 9 Sur 13 Sur 0 -- -- 45
2020-03-27 16:00:00 12.3 5 Sur 12 Sur 0 -- -- 46
2020-03-27 15:00:00 12.3 6 Sudeste 13 Sudeste 0 -- -- 46
2020-03-27 14:00:00 12.4 5 Sur 12 Este 0 -- -- 48
2020-03-27 13:00:00 11.7 6 Este 11 Este 0 -- -- 52
2020-03-27 12:00:00 9 2 Este 8 Este 0 -- -- 59
2020-03-27 11:00:00 6.9 3 Sudeste 8 Sudeste 0 -- -- 67
2020-03-27 10:00:00 4.6 3 Sudeste 6 Este 0 -- -- 73
2020-03-27 09:00:00 1.7 2 Norte 5 Nordeste 0 -- -- 88
2020-03-27 08:00:00 -1.6 2 Norte 3 Nordeste 0 -- -- 97
2020-03-27 07:00:00 -3 2 Norte 5 Sudoeste 0 -- -- 95
2020-03-27 06:00:00 -2.8 5 Noroeste 8 Noroeste 0 -- -- 95
2020-03-27 05:00:00 -2.8 3 Norte 9 Norte 0 -- -- 95
2020-03-27 04:00:00 -2.9 4 Norte 8 Noroeste 0 -- -- 95
2020-03-27 03:00:00 -2.2 3 Norte 6 Noroeste 0 -- -- 94
2020-03-27 02:00:00 -1.1 2 Nordeste 6 Norte 0 -- -- 93
2020-03-27 01:00:00 -0.9 5 Norte 8 Norte 0 -- -- 93
2020-03-27 00:00:00 0.7 5 Noroeste 14 Norte 0 -- -- 89
2020-03-26 23:00:00 0.9 6 Norte 9 Norte 0 -- -- 90
2020-03-26 22:00:00 1.6 8 Norte 11 Norte 0 -- -- 87
2020-03-26 21:00:00 3.6 6 Noroeste 9 Noroeste 0 -- -- 81
2020-03-26 20:00:00 6 2 Sudoeste 8 Este 0 -- -- 72
2020-03-26 19:00:00 6.9 7 Nordeste 17 Nordeste 0 -- -- 69
2020-03-26 18:00:00 7.7 10 Este 35 Este 0 -- -- 63
2020-03-26 17:00:00 8.2 15 Este 41 Este 0 -- -- 63
2020-03-26 16:00:00 9.4 20 Este 40 Este 0 -- -- 59
2020-03-26 15:00:00 10.4 18 Este 38 Este 0 -- -- 55
2020-03-26 14:00:00 9.2 21 Este 37 Este 0 -- -- 59
2020-03-26 13:00:00 9.5 26 Este 41 Este 0 -- -- 59
2020-03-26 12:00:00 11.2 23 Nordeste 38 Nordeste 0 -- -- 54
2020-03-26 11:00:00 11.5 12 Este 25 Nordeste 0 -- -- 61
2020-03-26 10:00:00 6.4 3 Norte 8 Nordeste 0 -- -- 76
2020-03-26 09:00:00 2.3 3 Nordeste 9 Norte 0 -- -- 96
2020-03-26 08:00:00 -1.1 5 Norte 12 Noroeste 0 -- -- 97
2020-03-26 07:00:00 -1.7 3 Sudoeste 8 Noroeste 0 -- -- 96
2020-03-26 06:00:00 -2.1 5 Norte 10 Noroeste 0 -- -- 95
2020-03-26 05:00:00 -1.1 8 Noroeste 9 Noroeste 0 -- -- 97
2020-03-26 04:00:00 -1.1 4 Norte 12 Norte 0 -- -- 94
2020-03-26 03:00:00 -0.8 6 Norte 9 Norte 0 -- -- 95
2020-03-26 02:00:00 0.4 2 Sudoeste 8 Noroeste 0 -- -- 92
2020-03-26 01:00:00 1.1 4 Norte 8 Norte 0 -- -- 91
2020-03-26 00:00:00 2 5 Noroeste 10 Noroeste 0 -- -- 88
2020-03-25 23:00:00 5.2 4 Noroeste 9 Sudoeste 0 -- -- 74
2020-03-25 22:00:00 6.7 3 Sudoeste 9 Sur 0 -- -- 73
2020-03-25 21:00:00 7.2 6 Sur 15 Sur 0 -- -- 68
2020-03-25 20:00:00 7.5 12 Sur 18 Sur 0 -- -- 66
2020-03-25 19:00:00 7.9 9 Sur 21 Sur 0 -- -- 64
2020-03-25 18:00:00 8.4 14 Sur 27 Sudeste 0 -- -- 63
2020-03-25 17:00:00 9.2 17 Sur 27 Sur 0 -- -- 61
2020-03-25 16:00:00 10 9 Sur 21 Sur 0 -- -- 51
2020-03-25 15:00:00 10.2 14 Sudoeste 18 Sudoeste 0 -- -- 53
2020-03-25 14:00:00 10.2 9 Sudoeste 18 Sudoeste 0 -- -- 51
2020-03-25 13:00:00 10.5 4 Sur 12 Noroeste 0 -- -- 51
2020-03-25 12:00:00 8.7 2 Oeste 9 Norte 0 -- -- 64
2020-03-25 11:00:00 7 3 Nordeste 13 Noroeste 0 -- -- 71
2020-03-25 10:00:00 6.3 6 Nordeste 16 Noroeste 0 -- -- 77
2020-03-25 09:00:00 3 9 Noroeste 13 Noroeste 0 -- -- 90
2020-03-25 08:00:00 3 6 Norte 40 Este 0.2 -- -- 86
2020-03-25 07:00:00 4.4 18 Nordeste 32 Nordeste 0 -- -- 76
2020-03-25 06:00:00 4.8 9 Norte 14 Norte 0 -- -- 76
2020-03-25 05:00:00 5 10 Nordeste 27 Nordeste 0 -- -- 75
2020-03-25 04:00:00 6 15 Nordeste 24 Nordeste 0 -- -- 72
2020-03-25 03:00:00 6.4 7 Nordeste 19 Este 0 -- -- 70
2020-03-25 02:00:00 6.6 8 Este 18 Este 0 -- -- 71
2020-03-25 01:00:00 6.4 4 Norte 8 Norte 0 -- -- 76
2020-03-25 00:00:00 6.5 4 Norte 13 Nordeste 0 -- -- 75
2020-03-24 23:00:00 6.9 6 Nordeste 21 Nordeste 0 -- -- 74
2020-03-24 22:00:00 7.5 10 Nordeste 18 Nordeste 0 -- -- 75
2020-03-24 21:00:00 7.8 9 Nordeste 21 Nordeste 0 -- -- 74
2020-03-24 20:00:00 8.2 9 Nordeste 24 Este 0 -- -- 73
2020-03-24 19:00:00 8.9 18 Este 27 Nordeste 0 -- -- 72
2020-03-24 18:00:00 9.8 6 Nordeste 25 Este 0 -- -- 70
2020-03-24 17:00:00 10.9 14 Nordeste 26 Este 0 -- -- 64
2020-03-24 16:00:00 12.3 12 Este 29 Este 0 -- -- 59
2020-03-24 15:00:00 13.2 14 Este 27 Este 0 -- -- 54
2020-03-24 14:00:00 15.3 17 Este 28 Este 0 -- -- 51
2020-03-24 13:00:00 15.1 13 Este 28 Este 0 -- -- 54
2020-03-24 12:00:00 14 15 Este 33 Este 0 -- -- 59
2020-03-24 11:00:00 13.2 14 Este 29 Este 0 -- -- 63
2020-03-24 10:00:00 11.6 13 Nordeste 26 Nordeste 0 -- -- 71
2020-03-24 09:00:00 10.8 11 Nordeste 17 Nordeste 0 -- -- 76
2020-03-24 08:00:00 8.5 7 Norte 9 Norte 0 -- -- 85
2020-03-24 07:00:00 8.5 6 Norte 9 Norte 0 -- -- 84
2020-03-24 06:00:00 9 4 Norte 10 Nordeste 0 -- -- 82
2020-03-24 05:00:00 9.3 5 Nordeste 18 Nordeste 0 -- -- 80
2020-03-24 04:00:00 9.1 6 Nordeste 18 Nordeste 0 -- -- 80
2020-03-24 03:00:00 9.1 12 Norte 15 Norte 0 -- -- 86
2020-03-24 02:00:00 9.4 2 Nordeste 10 Este 0 -- -- 86
2020-03-24 01:00:00 9.6 7 Nordeste 15 Nordeste 0 -- -- 85
2020-03-24 00:00:00 9.9 10 Nordeste 21 Nordeste 0 -- -- 85
2020-03-23 23:00:00 10.3 11 Nordeste 19 Nordeste 0 -- -- 83
2020-03-23 22:00:00 10.4 10 Nordeste 20 Nordeste 0 -- -- 83
2020-03-23 21:00:00 10.2 13 Norte 20 Nordeste 0 -- -- 83
2020-03-23 20:00:00 11.1 14 Nordeste 27 Este 0 -- -- 80
2020-03-23 19:00:00 12.1 11 Nordeste 24 Este 0 -- -- 76
2020-03-23 18:00:00 13 15 Este 40 Nordeste 0 -- -- 73
2020-03-23 17:00:00 14.2 11 Este 26 Este 0 -- -- 71
2020-03-23 16:00:00 13.5 8 Este 23 Nordeste 0 -- -- 72
2020-03-23 15:00:00 13.3 9 Nordeste 20 Norte 0 -- -- 78
2020-03-23 14:00:00 12.8 10 Norte 15 Norte 0 -- -- 88
2020-03-23 13:00:00 12.1 5 Nordeste 9 Norte 0.6 -- -- 93
2020-03-23 12:00:00 11.4 5 Noroeste 8 Noroeste 0.2 -- -- 94
2020-03-23 11:00:00 10.8 3 Norte 7 Noroeste 0.8 -- -- 96
2020-03-23 10:00:00 9.8 2 Oeste 5 Sudoeste 1 -- -- 97
2020-03-23 09:00:00 9.2 0 Calma 4 Norte 0.6 -- -- 97
2020-03-23 08:00:00 8.8 0 Calma 4 Noroeste 0.2 -- -- 97
2020-03-23 07:00:00 8.6 2 Norte 6 Norte 0.2 -- -- 98
2020-03-23 06:00:00 8.5 4 Norte 5 Norte 0 -- -- 97
2020-03-23 05:00:00 8.5 3 Norte 5 Norte 0 -- -- 96
2020-03-23 04:00:00 8.6 2 Norte 8 Noroeste 0.2 -- -- 94
2020-03-23 03:00:00 8.6 5 Norte 6 Noroeste 0 -- -- 93
2020-03-23 02:00:00 8.3 4 Norte 9 Norte 0 -- -- 93
2020-03-23 01:00:00 8.7 6 Noroeste 9 Norte 0 -- -- 93
2020-03-23 00:00:00 9.3 9 Noroeste 10 Norte 0 -- -- 90
2020-03-22 23:00:00 10.2 0 Calma 6 Oeste 0 -- -- 86
2020-03-22 22:00:00 11.4 3 Norte 4 Noroeste 0 -- -- 83
2020-03-22 21:00:00 11.9 2 Sur 14 Sur 0 -- -- 80
2020-03-22 20:00:00 12.2 10 Sur 21 Sur 0 -- -- 80
2020-03-22 19:00:00 12.9 9 Sur 26 Sur 0 -- -- 76
2020-03-22 18:00:00 14 14 Sur 22 Sur 0 -- -- 71
2020-03-22 17:00:00 14.8 8 Sur 26 Este 0 -- -- 60
2020-03-22 16:00:00 16.7 10 Sudoeste 20 Sur 0 -- -- 55
2020-03-22 15:00:00 16 9 Sudeste 18 Sudeste 0 -- -- 60
2020-03-22 14:00:00 16.3 4 Sudeste 14 Sur 0 -- -- 56
2020-03-22 13:00:00 15.8 9 Sur 14 Sur 0 -- -- 60
2020-03-22 12:00:00 14.4 3 Sur 11 Norte 0 -- -- 63
2020-03-22 11:00:00 14.2 5 Norte 10 Nordeste 0 -- -- 70
2020-03-22 10:00:00 11.2 3 Norte 5 Norte 0 -- -- 85
2020-03-22 09:00:00 8.4 2 Este 5 Sudeste 0 -- -- 96
2020-03-22 08:00:00 6.7 2 Sur 5 Norte 0 -- -- 96
2020-03-22 07:00:00 6.4 4 Norte 9 Norte 0 -- -- 95
2020-03-22 06:00:00 7.9 5 Noroeste 9 Noroeste 0 -- -- 95
2020-03-22 05:00:00 8.7 2 Noroeste 7 Oeste 0 -- -- 92
2020-03-22 04:00:00 9.3 0 Calma 5 Sur 0 -- -- 91
2020-03-22 03:00:00 9.6 3 Noroeste 6 Noroeste 0 -- -- 90
2020-03-22 02:00:00 10.2 0 Calma 3 Norte 0 -- -- 88
2020-03-22 01:00:00 10.6 0 Calma 4 Sur 0 -- -- 86
2020-03-22 00:00:00 10.9 2 Sudoeste 3 Norte 0 -- -- 86
2020-03-21 23:00:00 11.1 5 Sudoeste 10 Sudoeste 0 -- -- 85
2020-03-21 22:00:00 11.6 5 Sudoeste 11 Sudoeste 0 -- -- 81
2020-03-21 21:00:00 12.1 6 Sur 16 Sur 0 -- -- 76
2020-03-21 20:00:00 12.9 12 Sur 18 Sur 0 -- -- 70
2020-03-21 19:00:00 13.8 9 Sur 24 Sur 0 -- -- 63
2020-03-21 18:00:00 15 10 Sur 24 Sur 0 -- -- 59
2020-03-21 17:00:00 16 12 Sur 21 Sur 0 -- -- 54
2020-03-21 16:00:00 16.4 10 Sur 22 Sur 0 -- -- 51
2020-03-21 15:00:00 16.8 11 Sur 22 Sudeste 0 -- -- 49
2020-03-21 14:00:00 16.4 12 Sur 21 Sur 0 -- -- 50
2020-03-21 13:00:00 15.2 8 Sudoeste 16 Sudoeste 0 -- -- 52
2020-03-21 12:00:00 14.8 6 Sur 12 Sur 0 -- -- 52
2020-03-21 11:00:00 12.4 4 Sudeste 9 Sur 0 -- -- 65
2020-03-21 10:00:00 8.5 6 Sur 9 Sur 0 -- -- 79
2020-03-21 09:00:00 4.6 2 Este 5 Este 0 -- -- 95
2020-03-21 08:00:00 0.8 4 Norte 7 Norte 0 -- -- 99
2020-03-21 07:00:00 0.3 0 Calma 6 Norte 0 -- -- 97
2020-03-21 06:00:00 0.6 4 Norte 5 Norte 0 -- -- 98
2020-03-21 05:00:00 0.7 2 Norte 5 Noroeste 0 -- -- 97
2020-03-21 04:00:00 1.7 2 Norte 6 Norte 0 -- -- 96
2020-03-21 03:00:00 1.8 2 Norte 3 Norte 0 -- -- 96
2020-03-21 02:00:00 2.6 4 Noroeste 9 Noroeste 0 -- -- 96
2020-03-21 01:00:00 3.5 5 Norte 7 Noroeste 0 -- -- 94
2020-03-21 00:00:00 4.5 5 Noroeste 9 Noroeste 0 -- -- 89
2020-03-20 23:00:00 5.4 6 Norte 9 Noroeste 0 -- -- 88
2020-03-20 22:00:00 7.6 8 Noroeste 10 Noroeste 0 -- -- 82
2020-03-20 21:00:00 8.9 4 Norte -- -- 0 -- -- 74
2020-03-20 20:00:00 10.9 0 Calma 7 Sur 0 -- -- 66
2020-03-20 19:00:00 12.1 6 Sur 21 Sur 0 -- -- 62
2020-03-20 18:00:00 14 16 Sur 28 Sudeste 0 -- -- 56
2020-03-20 17:00:00 15.4 17 Sur 33 Sudoeste 0 -- -- 54
2020-03-20 16:00:00 17 16 Sudoeste 24 Sudoeste 0 -- -- 51
2020-03-20 15:00:00 16.8 12 Sur 27 Sur 0 -- -- 51
2020-03-20 14:00:00 16.2 15 Sur 24 Sur 0 -- -- 53
2020-03-20 13:00:00 15.9 11 Sur 22 Sur 0 -- -- 53
2020-03-20 12:00:00 14.6 10 Sur 15 Sur 0 -- -- 62
2020-03-20 11:00:00 11.1 5 Sudeste 9 Sur 0 -- -- 75
2020-03-20 10:00:00 6.4 3 Este 6 Nordeste 0 -- -- 100
2020-03-20 09:00:00 3 2 Norte 6 Norte 0 -- -- 100
2020-03-20 08:00:00 2 0 Calma 6 Norte 0 -- -- 99
2020-03-20 07:00:00 2 3 Norte 5 Norte 0 -- -- 99
2020-03-20 06:00:00 2.1 0 Calma 4 Norte 0 -- -- 99
2020-03-20 05:00:00 2 0 Calma 4 Noroeste 0 -- -- 98
2020-03-20 04:00:00 1.9 3 Noroeste 5 Noroeste 0 -- -- 98
2020-03-20 03:00:00 2.1 0 Calma 3 Sudoeste 0 -- -- 97
2020-03-20 02:00:00 3.2 3 Noroeste 8 Noroeste 0 -- -- 97
2020-03-20 01:00:00 3.4 4 Noroeste 6 Norte 0 -- -- 95
2020-03-20 00:00:00 4.4 4 Norte 5 Norte 0 -- -- 94
2020-03-19 23:00:00 6.2 0 Calma 7 Norte 0 -- -- 91
2020-03-19 22:00:00 7.6 6 Norte 8 Norte 0 -- -- 91
2020-03-19 21:00:00 9 3 Noroeste 9 Noroeste 0 -- -- 85
2020-03-19 20:00:00 11 3 Noroeste 10 Sudoeste 0 -- -- 77
2020-03-19 19:00:00 12.4 7 Sudoeste 25 Sudoeste 0 -- -- 73
2020-03-19 18:00:00 13.9 17 Sudoeste 30 Sudoeste 0 -- -- 67
2020-03-19 17:00:00 16.6 19 Sudoeste 28 Sudoeste 0 -- -- 56
2020-03-19 16:00:00 17.5 19 Sur 31 Sudoeste 0 -- -- 56
2020-03-19 15:00:00 18.1 17 Sur 27 Sudoeste 0 -- -- 54
2020-03-19 14:00:00 18 16 Sur 23 Sur 0 -- -- 54
2020-03-19 13:00:00 17.8 13 Sur 24 Sur 0 -- -- 51
2020-03-19 12:00:00 16.3 13 Sur 17 Sur 0 -- -- 60
2020-03-19 11:00:00 13.4 6 Sur 9 Sudeste 0 -- -- 70
2020-03-19 10:00:00 10.2 3 Sudeste 6 Sudeste 0 -- -- 81
2020-03-19 09:00:00 6 2 Sudeste 5 Este 0 -- -- 100
2020-03-19 08:00:00 2.2 2 Norte 5 Norte 0 -- -- 100
2020-03-19 07:00:00 1.8 3 Norte 6 Norte 0 -- -- 98
2020-03-19 06:00:00 1.9 2 Sur 4 Norte 0 -- -- 98
2020-03-19 05:00:00 2.6 4 Norte 6 Norte 0 -- -- 98
2020-03-19 04:00:00 2.8 0 Calma 3 Sur 0 -- -- 96
2020-03-19 03:00:00 3.6 4 Noroeste 6 Norte 0 -- -- 98
2020-03-19 02:00:00 4.8 4 Noroeste 5 Norte 0 -- -- 98
2020-03-19 01:00:00 5 4 Norte 6 Norte 0 -- -- 94
2020-03-19 00:00:00 6.5 2 Noroeste 6 Noroeste 0 -- -- 92
2020-03-18 23:00:00 7.1 6 Noroeste 8 Noroeste 0 -- -- 93
2020-03-18 22:00:00 8.5 6 Norte 9 Noroeste 0 -- -- 88
2020-03-18 21:00:00 10.2 4 Noroeste 8 Noroeste 0 -- -- 82
2020-03-18 20:00:00 12.7 2 Sur 6 Sudeste 0 -- -- 74
2020-03-18 19:00:00 14.2 4 Sudoeste 14 Sur 0 -- -- 69
2020-03-18 18:00:00 15.5 13 Sur 19 Sur 0 -- -- 64
2020-03-18 17:00:00 17.5 11 Sur 16 Sur 0 -- -- 56
2020-03-18 16:00:00 17.4 5 Sur 11 Sudoeste 0 -- -- 50
2020-03-18 15:00:00 16.7 5 Sudeste 15 Sur 0 -- -- 54
2020-03-18 14:00:00 16 11 Sur 18 Sur 0 -- -- 62
2020-03-18 13:00:00 15.9 10 Sudeste 15 Sudeste 0 -- -- 68
2020-03-18 12:00:00 14.4 4 Este 9 Este 0 -- -- 67
2020-03-18 11:00:00 11.1 4 Sudeste 8 Sudeste 0 -- -- 84
2020-03-18 10:00:00 8.2 4 Sur 6 Sur 0 -- -- 97
2020-03-18 09:00:00 6.4 3 Norte 8 Noroeste 0 -- -- 99
2020-03-18 08:00:00 5.9 4 Sudoeste 6 Norte 0 -- -- 99
2020-03-18 07:00:00 5.3 4 Norte 6 Norte 0 -- -- 97
2020-03-18 06:00:00 6.4 2 Sur 8 Norte 0 -- -- 97
2020-03-18 05:00:00 6.1 5 Norte 11 Norte 0 -- -- 96
2020-03-18 04:00:00 7 3 Norte 7 Noroeste 0 -- -- 97
2020-03-18 03:00:00 7.1 3 Norte 6 Norte 0 -- -- 97
2020-03-18 02:00:00 7.2 4 Noroeste 10 Noroeste 0 -- -- 96
2020-03-18 01:00:00 6.7 6 Norte 10 Norte 0 -- -- 95
2020-03-18 00:00:00 7.6 8 Norte 10 Noroeste 0 -- -- 96
2020-03-17 23:00:00 8.7 3 Norte 8 Noroeste 0 -- -- 94
2020-03-17 22:00:00 9.6 3 Norte 7 Noroeste 0 -- -- 91
2020-03-17 21:00:00 11 0 Calma 6 Norte 0 -- -- 87
2020-03-17 20:00:00 11.9 6 Noroeste 9 Noroeste 0 -- -- 82
2020-03-17 19:00:00 13.5 3 Norte 9 Este 0 -- -- 76
2020-03-17 18:00:00 14.6 3 Nordeste 18 Este 0 -- -- 71
2020-03-17 17:00:00 15.2 9 Este 24 Este 0 -- -- 68
2020-03-17 16:00:00 15.7 12 Nordeste 22 Este 0 -- -- 68
2020-03-17 15:00:00 15 5 Nordeste 17 Nordeste 0 -- -- 71
2020-03-17 14:00:00 14.8 7 Nordeste 22 Este 0 -- -- 70
2020-03-17 13:00:00 14.5 10 Nordeste 23 Este 0 -- -- 73
2020-03-17 12:00:00 14 9 Nordeste 26 Nordeste 0 -- -- 72
2020-03-17 11:00:00 13.9 9 Norte 17 Norte 0 -- -- 73
2020-03-17 10:00:00 12.7 8 Norte 16 Nordeste 0 -- -- 75
2020-03-17 09:00:00 11.8 9 Norte 15 Norte 0 -- -- 76
2020-03-17 08:00:00 10.9 10 Norte 14 Norte 0 -- -- 77
2020-03-17 07:00:00 10.8 8 Norte 17 Norte 0 -- -- 77
2020-03-17 06:00:00 10.5 15 Norte 21 Norte 0 -- -- 79
2020-03-17 05:00:00 10.3 12 Norte 15 Norte 0 -- -- 80
2020-03-17 04:00:00 10.1 8 Norte 24 Norte 0 -- -- 84
2020-03-17 03:00:00 10.2 15 Norte 21 Norte 0 -- -- 84
2020-03-17 02:00:00 9.9 12 Nordeste 21 Nordeste 0 -- -- 90
2020-03-17 01:00:00 10.3 14 Norte 29 Norte 0 -- -- 91
2020-03-17 00:00:00 10.3 12 Nordeste 32 Este 0 -- -- 93
2020-03-16 23:00:00 10.2 14 Norte 26 Nordeste 0 -- -- 94
2020-03-16 22:00:00 10 14 Nordeste 23 Norte 0 -- -- 96
2020-03-16 21:00:00 9.9 11 Norte 19 Noroeste 0.2 -- -- 95
2020-03-16 20:00:00 9.7 13 Norte 23 Norte 0 -- -- 98
2020-03-16 19:00:00 9.5 16 Norte 23 Norte 2 -- -- 99
2020-03-16 18:00:00 9.7 14 Norte 24 Norte 5 -- -- 98
2020-03-16 17:00:00 9.9 12 Norte 22 Norte 3.4 -- -- 98
2020-03-16 16:00:00 9.4 13 Norte 20 Norte 7 -- -- 97
2020-03-16 15:00:00 9.8 13 Norte 26 Norte 2 -- -- 96
2020-03-16 14:00:00 10 16 Norte 27 Este 3.4 -- -- 94
2020-03-16 13:00:00 12.5 15 Este 32 Nordeste 0 -- -- 69
2020-03-16 12:00:00 12.5 12 Nordeste 31 Nordeste 0 -- -- 69
2020-03-16 11:00:00 12.5 18 Nordeste 31 Nordeste 0 -- -- 69
2020-03-16 10:00:00 11.8 13 Nordeste 28 Nordeste 0 -- -- 73
2020-03-16 09:00:00 10.8 14 Nordeste 27 Nordeste 0 -- -- 69
2020-03-16 08:00:00 10.7 9 Nordeste 20 Nordeste 0 -- -- 74
2020-03-16 07:00:00 10.6 8 Norte 14 Norte 0 -- -- 85
2020-03-16 06:00:00 10.3 5 Norte 10 Norte 0 -- -- 89
2020-03-16 05:00:00 10.4 8 Norte 12 Norte 0 -- -- 89
2020-03-16 04:00:00 10.6 3 Norte 10 Norte 0 -- -- 87
2020-03-16 03:00:00 10.5 7 Norte 10 Norte 0 -- -- 88
2020-03-16 02:00:00 10.5 6 Noroeste 8 Noroeste 0 -- -- 87
2020-03-16 01:00:00 11 4 Nordeste 17 Sudeste 0 -- -- 83
2020-03-16 00:00:00 11 4 Sudeste 9 Sudeste 0 -- -- 83
2020-03-15 23:00:00 10.7 3 Norte 4 Sudoeste 0 -- -- 84
2020-03-15 22:00:00 11.1 4 Oeste 9 Sudoeste 0 -- -- 82
2020-03-15 21:00:00 11.6 6 Sur 21 Sur 0 -- -- 78
2020-03-15 20:00:00 12.1 12 Sudoeste 21 Sur 0 -- -- 77
2020-03-15 19:00:00 13.1 15 Sur 25 Sur 0 -- -- 72
2020-03-15 18:00:00 14.3 19 Sur 27 Sur 0 -- -- 67
2020-03-15 17:00:00 16.4 15 Sur 27 Sur 0 -- -- 60
2020-03-15 16:00:00 16.2 19 Sur 32 Sur 0 -- -- 64
2020-03-15 15:00:00 17.4 20 Sur 32 Sudeste 0 -- -- 60
2020-03-15 14:00:00 16.8 17 Sur 27 Sur 0 -- -- 63
2020-03-15 13:00:00 14.5 8 Sudeste 13 Este 0 -- -- 72
2020-03-15 12:00:00 10.4 3 Nordeste 8 Sudeste 0 -- -- 88
2020-03-15 11:00:00 8.3 6 Este 10 Este 0 -- -- 100
2020-03-15 10:00:00 7.4 3 Sudoeste 6 Sur 0 -- -- 100
2020-03-15 09:00:00 7.1 3 Este 6 Este 0 -- -- 100
2020-03-15 08:00:00 6.4 4 Norte 5 Norte 0 -- -- 100
2020-03-15 07:00:00 6 2 Norte 4 Norte 0 -- -- 99
2020-03-15 06:00:00 5.7 2 Noroeste 6 Noroeste 0 -- -- 99
2020-03-15 05:00:00 5.3 3 Norte 6 Norte 0 -- -- 98
2020-03-15 04:00:00 5 2 Sur 4 Sur 0 -- -- 97
2020-03-15 03:00:00 5.4 0 Calma 8 Noroeste 0 -- -- 98
2020-03-15 02:00:00 5.2 4 Norte 6 Norte 0 -- -- 96
2020-03-15 01:00:00 6.4 4 Oeste 9 Noroeste 0 -- -- 96
2020-03-15 00:00:00 7.4 5 Norte 8 Noroeste 0 -- -- 95
2020-03-14 23:00:00 8.2 4 Noroeste 7 Noroeste 0 -- -- 91
2020-03-14 22:00:00 10.7 0 Calma 15 Sudoeste 0 -- -- 87
2020-03-14 21:00:00 11.9 9 Sur 18 Sur 0 -- -- 84
2020-03-14 20:00:00 13 10 Sur 16 Sudoeste 0 -- -- 83
2020-03-14 19:00:00 14 10 Sudoeste 20 Sur 0 -- -- 79
2020-03-14 18:00:00 16.2 10 Sur 18 Sur 0 -- -- 67
2020-03-14 17:00:00 16.7 6 Sudeste 10 Este 0 -- -- 62
2020-03-14 16:00:00 16.7 4 Sur 13 Este 0 -- -- 62
2020-03-14 15:00:00 16.8 3 Sur 13 Sudoeste 0 -- -- 63
2020-03-14 14:00:00 15.7 6 Sudoeste 12 Sudoeste 0 -- -- 67
2020-03-14 13:00:00 15.3 5 Nordeste 10 Nordeste 0 -- -- 71
2020-03-14 12:00:00 13.6 5 Este 10 Sur 0 -- -- 75
2020-03-14 11:00:00 11.7 5 Sudoeste 13 Sudoeste 0 -- -- 80
2020-03-14 10:00:00 10.8 6 Sudoeste 12 Sudoeste 0 -- -- 84
2020-03-14 09:00:00 9.8 3 Sur 6 Sur 0 -- -- 91
2020-03-14 08:00:00 9 2 Sur 6 Norte 0 -- -- 92
2020-03-14 07:00:00 8.5 2 Sur 6 Norte 0 -- -- 93
2020-03-14 06:00:00 7.9 4 Noroeste 8 Norte 0 -- -- 94
2020-03-14 05:00:00 7.6 2 Este 6 Norte 0 -- -- 96
2020-03-14 04:00:00 6.8 5 Norte 8 Norte 0 -- -- 94
2020-03-14 03:00:00 7.4 5 Norte 8 Norte 0 -- -- 95
2020-03-14 02:00:00 8.5 6 Noroeste 8 Noroeste 0 -- -- 93
2020-03-14 01:00:00 9.5 0 Calma 5 Norte 0 -- -- 89
2020-03-14 00:00:00 12.2 0 Calma 10 Sur 0 -- -- 81
2020-03-13 23:00:00 13.3 8 Sur 11 Sur 0 -- -- 78
2020-03-13 22:00:00 13.7 5 Sur 8 Sur 0 -- -- 74
2020-03-13 21:00:00 14.3 2 Sudoeste 8 Sudoeste 0 -- -- 72
2020-03-13 20:00:00 14.9 5 Sudoeste 8 Sur 0 -- -- 69
2020-03-13 19:00:00 15.4 4 Sudoeste 15 Sur 0 -- -- 67
2020-03-13 18:00:00 15.8 5 Sur 19 Oeste 0 -- -- 66
2020-03-13 17:00:00 16.4 7 Sudoeste 19 Oeste 0 -- -- 65
2020-03-13 16:00:00 17.5 6 Oeste 19 Noroeste 0 -- -- 59
2020-03-13 15:00:00 17.9 11 Sudoeste 27 Sudoeste 0 -- -- 58
2020-03-13 14:00:00 19.8 4 Sur 22 Sudoeste 0 -- -- 53
2020-03-13 13:00:00 18.9 5 Sur 14 Sur 0 -- -- 57
2020-03-13 12:00:00 17.8 9 Sur 15 Sudeste 0 -- -- 58
2020-03-13 11:00:00 16.7 4 Este 8 Este 0 -- -- 67
2020-03-13 10:00:00 13.6 3 Este 6 Nordeste 0 -- -- 79
2020-03-13 09:00:00 10 4 Norte 6 Norte 0 -- -- 92
2020-03-13 08:00:00 7.7 5 Norte 9 Norte 0 -- -- 97
2020-03-13 07:00:00 7.6 6 Sudoeste 9 Norte 0 -- -- 94
2020-03-13 06:00:00 7.8 6 Norte 9 Noroeste 0 -- -- 96
2020-03-13 05:00:00 7.8 5 Norte 10 Noroeste 0 -- -- 93
2020-03-13 04:00:00 8.7 4 Sur 9 Norte 0 -- -- 92
2020-03-13 03:00:00 8.4 4 Norte 8 Noroeste 0 -- -- 90
2020-03-13 02:00:00 10.1 6 Norte 9 Noroeste 0 -- -- 91
2020-03-13 01:00:00 10.7 7 Noroeste 10 Norte 0 -- -- 89
2020-03-13 00:00:00 11.2 0 Calma 4 Sudoeste 0 -- -- 85
2020-03-12 23:00:00 12.5 4 Noroeste 8 Norte 0 -- -- 80
2020-03-12 22:00:00 14.1 2 Sudoeste 5 Norte 0 -- -- 73
2020-03-12 21:00:00 16.2 0 Calma 9 Sur 0 -- -- 67
2020-03-12 20:00:00 17.8 4 Sur 16 Sur 0 -- -- 64
2020-03-12 19:00:00 19.9 14 Sur 25 Sur 0 -- -- 55
2020-03-12 18:00:00 22.2 11 Sur 21 Sur 0 -- -- 47
2020-03-12 17:00:00 24.5 14 Sur 20 Sur 0 -- -- 40
2020-03-12 16:00:00 24.8 13 Sur 24 Sur 0 -- -- 40
2020-03-12 15:00:00 24.5 12 Sur 19 Sur 0 -- -- 42
2020-03-12 14:00:00 23.5 12 Sur 19 Sur 0 -- -- 42
2020-03-12 13:00:00 22 11 Sur 18 Sur 0 -- -- 49
2020-03-12 12:00:00 20.1 6 Sur 10 Sur 0 -- -- 52
2020-03-12 11:00:00 17.4 4 Este 8 Nordeste 0 -- -- 58
2020-03-12 10:00:00 13.6 4 Este 7 Este 0 -- -- 69
2020-03-12 09:00:00 8.8 2 Nordeste 4 Nordeste 0 -- -- 82
2020-03-12 08:00:00 4.3 0 Calma 5 Norte 0 -- -- 97
2020-03-12 07:00:00 3.4 4 Norte 7 Norte 0 -- -- 96
2020-03-12 06:00:00 3.4 2 Norte 6 Norte 0 -- -- 94
2020-03-12 05:00:00 3.9 4 Noroeste 7 Noroeste 0 -- -- 92
2020-03-12 04:00:00 5.8 2 Noroeste 8 Noroeste 0 -- -- 90
2020-03-12 03:00:00 6.4 5 Noroeste 8 Noroeste 0 -- -- 89
2020-03-12 02:00:00 7.3 2 Sur 6 Noroeste 0 -- -- 83
2020-03-12 01:00:00 7.9 2 Noroeste 8 Norte 0 -- -- 82
2020-03-12 00:00:00 7.6 4 Norte 7 Noroeste 0 -- -- 82
2020-03-11 23:00:00 9.1 4 Noroeste 7 Noroeste 0 -- -- 76
2020-03-11 22:00:00 10.1 2 Sur 8 Noroeste 0 -- -- 75
2020-03-11 21:00:00 13.5 4 Noroeste 6 Norte 0 -- -- 62
2020-03-11 20:00:00 16.7 2 Sudoeste 10 Oeste 0 -- -- 53
2020-03-11 19:00:00 18.6 8 Oeste 18 Sudoeste 0 -- -- 47
2020-03-11 18:00:00 21.3 13 Sur 19 Sur 0 -- -- 44
2020-03-11 17:00:00 23.4 13 Sur 19 Sur 0 -- -- 36
2020-03-11 16:00:00 22.8 12 Sudeste 22 Sudeste 0 -- -- 37
2020-03-11 15:00:00 22.5 10 Sur 18 Sur 0 -- -- 42
2020-03-11 14:00:00 21 6 Sudeste 14 Sudeste 0 -- -- 45
2020-03-11 13:00:00 19.4 8 Sudeste 14 Sudeste 0 -- -- 50
2020-03-11 12:00:00 16.8 7 Sudeste 13 Sudeste 0 -- -- 58
2020-03-11 11:00:00 13.9 4 Sur 8 Sur 0 -- -- 67
2020-03-11 10:00:00 10 3 Nordeste 5 Nordeste 0 -- -- 81
2020-03-11 09:00:00 5.5 2 Nordeste 6 Nordeste 0 -- -- 98
2020-03-11 08:00:00 2.6 4 Noroeste 7 Norte 0 -- -- 100
2020-03-11 07:00:00 1.3 4 Norte 8 Noroeste 0 -- -- 97
2020-03-11 06:00:00 2 0 Calma 9 Norte 0 -- -- 98
2020-03-11 05:00:00 2 4 Norte 6 Norte 0 -- -- 97
2020-03-11 04:00:00 2.6 0 Calma 10 Noroeste 0 -- -- 95
2020-03-11 03:00:00 2.8 3 Sur 8 Norte 0 -- -- 96
2020-03-11 02:00:00 3.4 4 Norte 9 Norte 0 -- -- 95
2020-03-11 01:00:00 4.1 3 Nordeste 9 Noroeste 0 -- -- 94
2020-03-11 00:00:00 5.2 4 Norte 7 Norte 0 -- -- 94
2020-03-10 23:00:00 5.8 0 Calma 8 Norte 0 -- -- 89
2020-03-10 22:00:00 7.2 6 Noroeste 9 Noroeste 0 -- -- 88
2020-03-10 21:00:00 8.8 7 Noroeste 10 Noroeste 0 -- -- 82
2020-03-10 20:00:00 10 4 Oeste 9 Noroeste 0 -- -- 77
2020-03-10 19:00:00 11.6 0 Calma 4 Este 0 -- -- 70
2020-03-10 18:00:00 12.3 2 Sudoeste 8 Sudoeste 0 -- -- 66
2020-03-10 17:00:00 12.6 5 Noroeste 9 Oeste 0 -- -- 64
2020-03-10 16:00:00 13 5 Sudoeste 15 Sudoeste 0 -- -- 62
2020-03-10 15:00:00 13.8 5 Sudoeste 24 Sur 0 -- -- 58
2020-03-10 14:00:00 14.7 17 Sur 24 Sudoeste 0 -- -- 54
2020-03-10 13:00:00 14.9 9 Sur 17 Sur 0 -- -- 57
2020-03-10 12:00:00 12.9 10 Sur 17 Sudeste 0 -- -- 62
2020-03-10 11:00:00 11 8 Sur 14 Sur 0 -- -- 66
2020-03-10 10:00:00 8.5 4 Este 8 Este 0 -- -- 75
2020-03-10 09:00:00 4.5 2 Este 9 Noroeste 0 -- -- 93
2020-03-10 08:00:00 2 6 Noroeste 10 Noroeste 0 -- -- 98
2020-03-10 07:00:00 1.1 4 Oeste 9 Norte 0 -- -- 96
2020-03-10 06:00:00 1.8 4 Noroeste 9 Noroeste 0 -- -- 96
2020-03-10 05:00:00 2.1 3 Noroeste 9 Norte 0 -- -- 97
2020-03-10 04:00:00 2.4 0 Calma 8 Norte 0 -- -- 96
2020-03-10 03:00:00 3 3 Noroeste 8 Norte 0 -- -- 96
2020-03-10 02:00:00 3.4 0 Calma 8 Noroeste 0 -- -- 95
2020-03-10 01:00:00 4.3 0 Calma 6 Noroeste 0 -- -- 94
2020-03-10 00:00:00 5.1 5 Noroeste 10 Norte 0 -- -- 91
2020-03-09 23:00:00 5.7 5 Norte 9 Norte 0 -- -- 86
2020-03-09 22:00:00 7.7 3 Norte 10 Sudoeste 0 -- -- 84
2020-03-09 21:00:00 9.2 6 Sur 16 Sur 0 -- -- 81
2020-03-09 20:00:00 10.5 10 Sur 24 Sur 0 -- -- 76
2020-03-09 19:00:00 12.7 12 Sur 30 Noroeste 0 -- -- 65
2020-03-09 18:00:00 16.2 14 Noroeste 27 Noroeste 0 -- -- 29
2020-03-09 17:00:00 17.9 15 Noroeste 33 Noroeste 0 -- -- 27
2020-03-09 16:00:00 18.6 15 Noroeste 28 Noroeste 0 -- -- 26
2020-03-09 15:00:00 18 10 Oeste 29 Sudoeste 0 -- -- 37
2020-03-09 14:00:00 17.2 8 Sur 29 Sudoeste 0 -- -- 42
2020-03-09 13:00:00 16.1 13 Sur 24 Sur 0 -- -- 46
2020-03-09 12:00:00 13.9 12 Sudeste 20 Sur 0 -- -- 56
2020-03-09 11:00:00 11.5 7 Sur 12 Sur 0 -- -- 67
2020-03-09 10:00:00 9 4 Sudeste 8 Este 0 -- -- 78
2020-03-09 09:00:00 4.5 6 Norte 15 Norte 0 -- -- 94
2020-03-09 08:00:00 1.5 5 Noroeste 14 Norte 0 -- -- 97
2020-03-09 07:00:00 2.3 6 Norte 12 Norte 0 -- -- 97
2020-03-09 06:00:00 1.4 5 Norte 6 Norte 0 -- -- 96
2020-03-09 05:00:00 2.5 2 Sudoeste 11 Norte 0 -- -- 97
2020-03-09 04:00:00 2.6 2 Noroeste 10 Norte 0 -- -- 97
2020-03-09 03:00:00 3.3 6 Noroeste 9 Noroeste 0 -- -- 96
2020-03-09 02:00:00 3.1 3 Noroeste 8 Noroeste 0 -- -- 95
2020-03-09 01:00:00 3.8 3 Norte 9 Noroeste 0 -- -- 94
2020-03-09 00:00:00 4.9 3 Oeste 8 Norte 0 -- -- 89
2020-03-08 23:00:00 6 2 Oeste 7 Norte 0 -- -- 84
2020-03-08 22:00:00 7.5 3 Noroeste 10 Noroeste 0 -- -- 79
2020-03-08 21:00:00 10.1 0 Calma 5 Sur 0 -- -- 70
2020-03-08 20:00:00 12 2 Sur 5 Sudoeste 0 -- -- 63
2020-03-08 19:00:00 13.1 2 Sudeste 10 Sur 0 -- -- 57
2020-03-08 18:00:00 14.6 4 Noroeste 13 Noroeste 0 -- -- 52
2020-03-08 17:00:00 15.7 9 Sudoeste 25 Sudoeste 0 -- -- 51
2020-03-08 16:00:00 16.7 10 Oeste 20 Sudoeste 0 -- -- 44
2020-03-08 15:00:00 16.8 6 Oeste 27 Sudoeste 0 -- -- 44
2020-03-08 14:00:00 16.9 9 Sur 20 Sudeste 0 -- -- 49
2020-03-08 13:00:00 14.7 9 Sur 20 Sur 0 -- -- 57
2020-03-08 12:00:00 13.3 10 Sur 18 Sur 0 -- -- 63
2020-03-08 11:00:00 11.4 5 Sudeste 11 Sudeste 0 -- -- 67
2020-03-08 10:00:00 9 5 Este 8 Este 0 -- -- 74
2020-03-08 09:00:00 4.6 3 Nordeste 7 Norte 0 -- -- 85
2020-03-08 08:00:00 1.4 4 Norte 9 Norte 0 -- -- 96
2020-03-08 07:00:00 1.2 4 Sudoeste 9 Noroeste 0 -- -- 94
2020-03-08 06:00:00 1.4 5 Norte 11 Noroeste 0 -- -- 90
2020-03-08 05:00:00 2.8 2 Norte 6 Noroeste 0 -- -- 91
2020-03-08 04:00:00 3.7 0 Calma 6 Noroeste 0 -- -- 87
2020-03-08 03:00:00 3.5 3 Norte 7 Norte 0 -- -- 88
2020-03-08 02:00:00 4.2 6 Norte 10 Norte 0 -- -- 83
2020-03-08 01:00:00 3.6 3 Norte 7 Norte 0 -- -- 86
2020-03-08 00:00:00 4.8 3 Oeste 9 Noroeste 0 -- -- 81
2020-03-07 23:00:00 5.2 5 Norte 9 Noroeste 0 -- -- 78
2020-03-07 22:00:00 6.7 3 Sur 12 Noroeste 0 -- -- 71
2020-03-07 21:00:00 8.8 7 Noroeste 10 Noroeste 0 -- -- 62
2020-03-07 20:00:00 10.5 3 Nordeste 15 Sudeste 0 -- -- 55
2020-03-07 19:00:00 13.1 5 Sudeste 19 Sur 0 -- -- 45
2020-03-07 18:00:00 15.2 5 Sudoeste 17 Sudoeste 0 -- -- 36
2020-03-07 17:00:00 16.5 10 Sur 22 Sur 0 -- -- 34
2020-03-07 16:00:00 17.1 6 Sudoeste 21 Oeste 0 -- -- 29
2020-03-07 15:00:00 15.9 7 Oeste 21 Sudoeste 0 -- -- 36
2020-03-07 14:00:00 14.7 12 Sudoeste 23 Sudoeste 0 -- -- 41
2020-03-07 13:00:00 13.2 16 Sudoeste 26 Sudoeste 0 -- -- 43
2020-03-07 12:00:00 13.4 14 Sur 29 Sur 0 -- -- 43
2020-03-07 11:00:00 11.2 14 Sudeste 21 Sudeste 0 -- -- 51
2020-03-07 10:00:00 8.2 8 Sudeste 12 Sudeste 0 -- -- 59
2020-03-07 09:00:00 4 6 Sur 14 Sur 0 -- -- 64
2020-03-07 08:00:00 0.6 4 Noroeste 12 Sudoeste 0 -- -- 78
2020-03-07 07:00:00 -1 5 Sur 15 Noroeste 0 -- -- 82
2020-03-07 06:00:00 0.2 9 Noroeste 20 Norte 0 -- -- 76
2020-03-07 05:00:00 -0.5 6 Sudoeste 18 Norte 0 -- -- 81
2020-03-07 04:00:00 -0.1 3 Norte 15 Noroeste 0 -- -- 79
2020-03-07 03:00:00 0.1 3 Noroeste 15 Noroeste 0 -- -- 77
2020-03-07 02:00:00 1.8 6 Sudoeste 12 Norte 0 -- -- 71
2020-03-07 01:00:00 4.4 4 Norte 10 Oeste 0 -- -- 60
2020-03-07 00:00:00 6.1 2 Sudeste 28 Noroeste 0 -- -- 53
2020-03-06 23:00:00 7.1 7 Norte 32 Noroeste 0 -- -- 47
2020-03-06 22:00:00 7.6 14 Noroeste 40 Noroeste 0 -- -- 45
2020-03-06 21:00:00 8.4 18 Noroeste 38 Noroeste 0 -- -- 42
2020-03-06 20:00:00 9.6 18 Noroeste 47 Noroeste 0 -- -- 36
2020-03-06 19:00:00 10.5 12 Noroeste 47 Noroeste 0 -- -- 32
2020-03-06 18:00:00 11.8 25 Noroeste 49 Oeste 0 -- -- 29
2020-03-06 17:00:00 13 24 Noroeste 45 Oeste 0 -- -- 29
2020-03-06 16:00:00 12.6 14 Noroeste 31 Oeste 0 -- -- 49
2020-03-06 15:00:00 10.3 17 Sudoeste 33 Sudoeste 0 -- -- 57
2020-03-06 14:00:00 -- 22 Oeste 39 Noroeste 0 -- -- --
2020-03-06 13:00:00 13.7 10 Sudoeste 36 Sudoeste 0 -- -- 52
2020-03-06 12:00:00 11.4 17 Sudoeste 30 Sudoeste 0 -- -- 57
2020-03-06 11:00:00 9.8 10 Sur 24 Sur 0 -- -- 64
2020-03-06 10:00:00 6.9 8 Sur 12 Sur 0 -- -- 77
2020-03-06 09:00:00 1.5 2 Noroeste 9 Norte 0 -- -- 94
2020-03-06 08:00:00 -0.2 8 Norte 12 Noroeste 0 -- -- 96
2020-03-06 07:00:00 -0.4 3 Norte 12 Norte 0 -- -- 94
2020-03-06 06:00:00 0.3 9 Norte 12 Noroeste 0 -- -- 95
2020-03-06 05:00:00 1 6 Norte 11 Noroeste 0 -- -- 94
2020-03-06 04:00:00 1.5 8 Norte 12 Norte 0 -- -- 90
2020-03-06 03:00:00 2.6 7 Norte 12 Noroeste 0 -- -- 88
2020-03-06 02:00:00 4.5 4 Norte 15 Noroeste 0 -- -- 82
2020-03-06 01:00:00 7 3 Nordeste 15 Sur 0 -- -- 73
2020-03-06 00:00:00 8.6 9 Sudoeste 19 Sudeste 0 -- -- 68
2020-03-05 23:00:00 10 8 Nordeste 25 Sudoeste 0 -- -- 63
2020-03-05 22:00:00 11.2 6 Noroeste 29 Oeste 0 -- -- 60
2020-03-05 21:00:00 12.1 15 Noroeste 24 Oeste 0 -- -- 57
2020-03-05 20:00:00 12.9 6 Sudoeste 24 Oeste 0 -- -- 54
2020-03-05 19:00:00 14.2 9 Oeste 45 Oeste 0 -- -- 50
2020-03-05 18:00:00 15.4 18 Oeste 47 Sudoeste 0 -- -- 46
2020-03-05 17:00:00 16.5 26 Sudoeste 45 Sudoeste 0 -- -- 60
2020-03-05 16:00:00 15 16 Sudoeste 39 Sudoeste 0 -- -- 74
2020-03-05 15:00:00 16.6 15 Sudoeste 33 Oeste 0 -- -- 60
2020-03-05 14:00:00 17 11 Oeste 44 Sudoeste 0 -- -- 61
2020-03-05 13:00:00 16.1 13 Sudoeste 37 Sudoeste 0 -- -- 62
2020-03-05 12:00:00 16.5 16 Sudoeste 36 Sudoeste 0 -- -- 63
2020-03-05 11:00:00 15.5 15 Sudoeste 27 Sudoeste 0 -- -- 67
2020-03-05 10:00:00 10.9 7 Sudoeste 13 Sur 0 -- -- 84
2020-03-05 09:00:00 6.2 3 Sudeste 5 Sudeste 0 -- -- 97
2020-03-05 08:00:00 4.1 0 Calma 10 Norte 0 -- -- 99
2020-03-05 07:00:00 4.1 5 Noroeste 9 Noroeste 0 -- -- 99
2020-03-05 06:00:00 4.8 5 Norte 8 Norte 0 -- -- 97
2020-03-05 05:00:00 5.2 3 Norte 8 Norte 0 -- -- 97
2020-03-05 04:00:00 5.9 6 Sudoeste 15 Noroeste 0 -- -- 97
2020-03-05 03:00:00 6.2 5 Norte 7 Norte 0 -- -- 97
2020-03-05 02:00:00 5.8 3 Norte 8 Norte 0 -- -- 94
2020-03-05 01:00:00 6.8 4 Norte 9 Sudoeste 0 -- -- 95
2020-03-05 00:00:00 8.3 2 Norte 11 Norte 0 -- -- 91
2020-03-04 23:00:00 8.4 4 Norte 9 Noroeste 0 -- -- 90
2020-03-04 22:00:00 9.1 8 Noroeste 10 Noroeste 0 -- -- 87
2020-03-04 21:00:00 11 5 Norte 9 Norte 0 -- -- 84
2020-03-04 20:00:00 12.7 5 Sur 18 Sur 0 -- -- 77
2020-03-04 19:00:00 14 15 Sur 22 Sur 0 -- -- 74
2020-03-04 18:00:00 16 16 Sur 25 Sur 0 -- -- 64
2020-03-04 17:00:00 18.6 9 Sudoeste 27 Sudoeste 0 -- -- 60
2020-03-04 16:00:00 18 10 Sudoeste 28 Sudoeste 0 -- -- 63
2020-03-04 15:00:00 17.1 14 Sudoeste 25 Sudoeste 0 -- -- 64
2020-03-04 14:00:00 16.5 13 Sur 24 Sur 0 -- -- 58
2020-03-04 13:00:00 14.9 8 Sudeste 21 Sudeste 0 -- -- 59
2020-03-04 12:00:00 13.3 10 Sur 16 Sudeste 0 -- -- 57
2020-03-04 11:00:00 10 4 Este 10 Sur 0 -- -- 64
2020-03-04 10:00:00 5.1 2 Norte 7 Sudeste 0 -- -- 80
2020-03-04 09:00:00 1.9 4 Noroeste 8 Noroeste 0 -- -- 93
2020-03-04 08:00:00 0.7 3 Norte 9 Norte 0 -- -- 91
2020-03-04 07:00:00 1.2 4 Noroeste 10 Noroeste 0 -- -- 89
2020-03-04 06:00:00 2.2 0 Calma 6 Noroeste 0 -- -- 86
2020-03-04 05:00:00 3.4 3 Norte 10 Sur 0 -- -- 85
2020-03-04 04:00:00 4.7 8 Sur 15 Sur 0 -- -- 81
2020-03-04 03:00:00 4.8 13 Sur 18 Sudoeste 0 -- -- 81
2020-03-04 02:00:00 4.4 4 Sur 15 Sur 0 -- -- 84
2020-03-04 01:00:00 5 5 Sur 13 Noroeste 0 -- -- 81
2020-03-04 00:00:00 6.9 8 Sur 16 Sur 0 -- -- 77
2020-03-03 23:00:00 8.4 3 Sur 25 Oeste 0 -- -- 69
2020-03-03 22:00:00 10.2 16 Oeste 22 Oeste 0 -- -- 64
2020-03-03 21:00:00 9.4 3 Oeste 9 Oeste 0 -- -- 70
2020-03-03 20:00:00 10.3 5 Norte 28 Noroeste 0 -- -- 68
2020-03-03 19:00:00 10.3 15 Oeste 34 Noroeste 0 -- -- 70
2020-03-03 18:00:00 10.1 8 Oeste 29 Noroeste 0 -- -- 73
2020-03-03 17:00:00 10.9 8 Oeste 33 Noroeste 0 -- -- 69
2020-03-03 16:00:00 11.1 13 Oeste 44 Noroeste 0 -- -- 66
2020-03-03 15:00:00 10.9 15 Oeste 42 Noroeste 0 -- -- 66
2020-03-03 14:00:00 10.8 12 Oeste 37 Sudoeste 0 -- -- 63
2020-03-03 13:00:00 10.7 15 Sudoeste 32 Sudoeste 0 -- -- 62
2020-03-03 12:00:00 9.8 12 Noroeste 31 Sudoeste 0 -- -- 61
2020-03-03 11:00:00 8.2 17 Sudoeste 31 Sudoeste 0 -- -- 64
2020-03-03 10:00:00 6.9 7 Sur 26 Sudoeste 0 -- -- 68
2020-03-03 09:00:00 5.8 4 Oeste 14 Oeste 0 -- -- 69
2020-03-03 08:00:00 4.1 3 Este 23 Noroeste 0 -- -- 77
2020-03-03 07:00:00 3.7 6 Norte 19 Noroeste 0 -- -- 77
2020-03-03 06:00:00 3.8 8 Noroeste 35 Oeste 0 -- -- 76
2020-03-03 05:00:00 4 10 Noroeste 39 Noroeste 0 -- -- 74
2020-03-03 04:00:00 3.8 13 Noroeste 30 Noroeste 0 -- -- 74
2020-03-03 03:00:00 4.2 12 Noroeste 31 Noroeste 0 -- -- 72
2020-03-03 02:00:00 4.9 10 Noroeste 27 Oeste 0 -- -- 68
2020-03-03 01:00:00 5 14 Noroeste 29 Oeste 0 -- -- 69
2020-03-03 00:00:00 4.9 11 Noroeste 22 Noroeste 0 -- -- 71
2020-03-02 23:00:00 5.6 6 Noroeste 30 Oeste 0 -- -- 70
2020-03-02 22:00:00 6.6 6 Oeste 28 Noroeste 0 -- -- 65
2020-03-02 21:00:00 7.7 8 Noroeste 21 Noroeste 0 -- -- 59
2020-03-02 20:00:00 8.9 7 Noroeste 19 Oeste 0 -- -- 50
2020-03-02 19:00:00 10.3 6 Noroeste 38 Norte 0 -- -- 39
2020-03-02 18:00:00 11.8 5 Norte 28 Oeste 0 -- -- 55
2020-03-02 17:00:00 12.4 10 Oeste 32 Sudoeste 0 -- -- 52
2020-03-02 16:00:00 10.3 11 Sudoeste -- -- 1.2 -- -- 65
2020-03-02 15:00:00 13 4 Noroeste 25 Sur 0 -- -- 59
2020-03-02 14:00:00 12.1 14 Oeste 49 Oeste 0 -- -- 65
2020-03-02 13:00:00 11.8 10 Sudoeste 42 Noroeste 0 -- -- 76
2020-03-02 12:00:00 10.9 18 Oeste 52 Oeste 0.6 -- -- 79
2020-03-02 11:00:00 13 15 Oeste 56 Oeste 0 -- -- 69
2020-03-02 10:00:00 11.1 16 Sudoeste 31 Sudoeste 0.2 -- -- 79
2020-03-02 09:00:00 11.1 9 Oeste 53 Oeste 0.4 -- -- 83
2020-03-02 08:00:00 11.1 13 Sur 30 Sur 0 -- -- 91
2020-03-02 07:00:00 10.8 21 Sur 32 Sur 0 -- -- 92
2020-03-02 06:00:00 9.3 12 Sur 18 Sur 0.8 -- -- 98
2020-03-02 05:00:00 8.2 2 Sur 5 Sudeste 1.6 -- -- 96
2020-03-02 04:00:00 8.2 2 Norte 13 Noroeste 1.2 -- -- 94
2020-03-02 03:00:00 8.2 3 Norte 13 Noroeste 0.2 -- -- 90
2020-03-02 02:00:00 8.6 4 Noroeste 6 Norte 0 -- -- 81
2020-03-02 01:00:00 9.5 4 Norte 9 Noroeste 0 -- -- 75
2020-03-02 00:00:00 10.5 3 Noroeste 12 Noroeste 0 -- -- 70